SWA3404 KMDW-KDEN
Flight info
| Callsign | SWA3404 |
|---|---|
| Flight time | 2h 5m |
| Altitude | 38000 |
| Route | PEKUE OBENE OGALE OBH BRWRY LAWGR4 |
| Aircraft | B738/M-SDE2E3FGHIRWXY/LB1 |
Departure
| Time | 2026-05-04 02:51 |
|---|---|
| Airport | Chicago Midway International Airport (KMDW) |
Arrival
| Time | 2026-05-04 04:56 |
|---|---|
| Airport | Denver International Airport (KDEN) |
| Time | Latitude | Longitude | Altitude | Speed | Heading |
|---|---|---|---|---|---|
| 2026-05-04 02:35 | 41.78444 | -87.74334 | 628 ft | 0 kts | 5° |
| 2026-05-04 02:45 | 41.78442 | -87.74335 | 628 ft | 2 kts | 5° |
| 2026-05-04 02:46 | 41.78416 | -87.74337 | 628 ft | 4 kts | 5° |
| 2026-05-04 02:46 | 41.78389 | -87.74340 | 628 ft | 4 kts | 5° |
| 2026-05-04 02:46 | 41.78363 | -87.74343 | 628 ft | 4 kts | 5° |
| 2026-05-04 02:46 | 41.78354 | -87.74344 | 628 ft | 1 kts | 5° |
| 2026-05-04 02:48 | 41.78355 | -87.74344 | 628 ft | 1 kts | 5° |
| 2026-05-04 02:48 | 41.78377 | -87.74405 | 628 ft | 14 kts | 272° |
| 2026-05-04 02:48 | 41.78436 | -87.74550 | 628 ft | 22 kts | 321° |
| 2026-05-04 02:48 | 41.78553 | -87.74710 | 628 ft | 24 kts | 313° |
| 2026-05-04 02:49 | 41.78695 | -87.74775 | 631 ft | 23 kts | 20° |
| 2026-05-04 02:49 | 41.78813 | -87.74639 | 629 ft | 22 kts | 43° |
| 2026-05-04 02:49 | 41.78924 | -87.74499 | 628 ft | 22 kts | 43° |
| 2026-05-04 02:49 | 41.79039 | -87.74354 | 632 ft | 22 kts | 44° |
| 2026-05-04 02:50 | 41.79141 | -87.74260 | 628 ft | 17 kts | 346° |
| 2026-05-04 02:50 | 41.79127 | -87.74397 | 635 ft | 34 kts | 223° |
| 2026-05-04 02:50 | 41.78749 | -87.74878 | 628 ft | 114 kts | 224° |
| 2026-05-04 02:50 | 41.78040 | -87.75769 | 876 ft | 154 kts | 223° |
| 2026-05-04 02:51 | 41.77281 | -87.76874 | 1522 ft | 177 kts | 245° |
| 2026-05-04 02:51 | 41.77154 | -87.78516 | 2273 ft | 192 kts | 268° |
| 2026-05-04 02:51 | 41.77182 | -87.80443 | 2575 ft | 220 kts | 267° |
| 2026-05-04 02:51 | 41.77225 | -87.82500 | 3292 ft | 221 kts | 266° |
| 2026-05-04 02:52 | 41.77272 | -87.84564 | 3992 ft | 226 kts | 266° |
| 2026-05-04 02:52 | 41.77323 | -87.86755 | 4486 ft | 241 kts | 268° |
| 2026-05-04 02:52 | 41.77381 | -87.89018 | 5418 ft | 241 kts | 268° |
| 2026-05-04 02:52 | 41.77442 | -87.91265 | 6462 ft | 241 kts | 269° |
| 2026-05-04 02:53 | 41.77504 | -87.93506 | 7434 ft | 244 kts | 270° |
| 2026-05-04 02:53 | 41.77569 | -87.95827 | 8176 ft | 253 kts | 271° |
| 2026-05-04 02:53 | 41.77636 | -87.98173 | 9069 ft | 256 kts | 271° |
| 2026-05-04 02:53 | 41.77704 | -88.00579 | 9914 ft | 261 kts | 272° |
| 2026-05-04 02:54 | 41.77773 | -88.03069 | 10475 ft | 277 kts | 272° |
| 2026-05-04 02:54 | 41.77848 | -88.05778 | 10664 ft | 305 kts | 272° |
| 2026-05-04 02:54 | 41.77929 | -88.08740 | 10886 ft | 328 kts | 272° |
| 2026-05-04 02:54 | 41.78013 | -88.11864 | 11352 ft | 341 kts | 273° |
| 2026-05-04 02:55 | 41.78184 | -88.18285 | 12950 ft | 347 kts | 273° |
| 2026-05-04 02:55 | 41.78268 | -88.21543 | 13694 ft | 351 kts | 273° |
| 2026-05-04 02:55 | 41.78352 | -88.24797 | 14425 ft | 355 kts | 273° |
| 2026-05-04 02:56 | 41.78435 | -88.28110 | 15174 ft | 357 kts | 273° |
| 2026-05-04 02:56 | 41.78519 | -88.31452 | 15890 ft | 360 kts | 274° |
| 2026-05-04 02:56 | 41.78604 | -88.34821 | 16561 ft | 364 kts | 274° |
| 2026-05-04 02:56 | 41.78688 | -88.38224 | 17228 ft | 367 kts | 274° |
| 2026-05-04 02:57 | 41.78772 | -88.41648 | 17895 ft | 369 kts | 274° |
| 2026-05-04 02:57 | 41.78855 | -88.45102 | 18542 ft | 371 kts | 274° |
| 2026-05-04 02:57 | 41.78938 | -88.48575 | 19147 ft | 374 kts | 274° |
| 2026-05-04 02:57 | 41.79020 | -88.52074 | 19741 ft | 377 kts | 274° |
| 2026-05-04 02:58 | 41.79103 | -88.55595 | 20333 ft | 380 kts | 274° |
| 2026-05-04 02:58 | 41.79184 | -88.59147 | 20903 ft | 382 kts | 274° |
| 2026-05-04 02:58 | 41.79264 | -88.62729 | 21446 ft | 385 kts | 274° |
| 2026-05-04 02:58 | 41.79343 | -88.66289 | 21976 ft | 387 kts | 274° |
| 2026-05-04 02:59 | 41.79423 | -88.69894 | 22511 ft | 388 kts | 274° |
| 2026-05-04 02:59 | 41.79503 | -88.73528 | 23009 ft | 391 kts | 274° |
| 2026-05-04 02:59 | 41.79581 | -88.77190 | 23470 ft | 393 kts | 274° |
| 2026-05-04 02:59 | 41.79661 | -88.80857 | 23927 ft | 395 kts | 274° |
| 2026-05-04 03:00 | 41.79823 | -88.84539 | 24371 ft | 397 kts | 276° |
| 2026-05-04 03:00 | 41.80048 | -88.88232 | 24850 ft | 398 kts | 277° |
| 2026-05-04 03:00 | 41.80295 | -88.91933 | 25275 ft | 399 kts | 277° |
| 2026-05-04 03:00 | 41.80544 | -88.95647 | 25709 ft | 401 kts | 277° |
| 2026-05-04 03:01 | 41.80787 | -88.99370 | 26137 ft | 402 kts | 277° |
| 2026-05-04 03:01 | 41.81025 | -89.03118 | 26527 ft | 404 kts | 277° |
| 2026-05-04 03:01 | 41.81258 | -89.06882 | 26874 ft | 406 kts | 277° |
| 2026-05-04 03:01 | 41.81489 | -89.10663 | 27253 ft | 407 kts | 277° |
| 2026-05-04 03:02 | 41.81716 | -89.14450 | 27602 ft | 409 kts | 277° |
| 2026-05-04 03:02 | 41.81943 | -89.18262 | 27939 ft | 411 kts | 277° |
| 2026-05-04 03:02 | 41.82170 | -89.22084 | 28244 ft | 413 kts | 277° |
| 2026-05-04 03:02 | 41.82394 | -89.25879 | 28564 ft | 414 kts | 277° |
| 2026-05-04 03:03 | 41.82619 | -89.29731 | 28913 ft | 414 kts | 277° |
| 2026-05-04 03:03 | 41.82842 | -89.33572 | 29375 ft | 411 kts | 277° |
| 2026-05-04 03:03 | 41.83062 | -89.37380 | 29872 ft | 408 kts | 277° |
| 2026-05-04 03:03 | 41.83279 | -89.41167 | 30318 ft | 406 kts | 277° |
| 2026-05-04 03:04 | 41.83496 | -89.44948 | 30665 ft | 406 kts | 277° |
| 2026-05-04 03:04 | 41.83712 | -89.48731 | 30981 ft | 407 kts | 277° |
| 2026-05-04 03:04 | 41.83923 | -89.52467 | 31329 ft | 406 kts | 277° |
| 2026-05-04 03:04 | 41.84136 | -89.56236 | 31719 ft | 404 kts | 277° |
| 2026-05-04 03:05 | 41.84347 | -89.59993 | 32019 ft | 404 kts | 277° |
| 2026-05-04 03:05 | 41.84557 | -89.63760 | 32310 ft | 405 kts | 276° |
| 2026-05-04 03:05 | 41.84766 | -89.67525 | 32654 ft | 404 kts | 276° |
| 2026-05-04 03:05 | 41.84930 | -89.71274 | 32986 ft | 404 kts | 273° |
| 2026-05-04 03:06 | 41.84769 | -89.75050 | 33259 ft | 407 kts | 266° |
| 2026-05-04 03:06 | 41.84372 | -89.78839 | 33448 ft | 410 kts | 265° |
| 2026-05-04 03:06 | 41.83963 | -89.82660 | 33464 ft | 417 kts | 265° |
| 2026-05-04 03:06 | 41.83549 | -89.86518 | 33631 ft | 420 kts | 265° |
| 2026-05-04 03:07 | 41.83136 | -89.90387 | 33994 ft | 417 kts | 265° |
| 2026-05-04 03:07 | 41.82733 | -89.94168 | 34447 ft | 412 kts | 265° |
| 2026-05-04 03:07 | 41.82326 | -89.98021 | 34712 ft | 413 kts | 265° |
| 2026-05-04 03:07 | 41.81929 | -90.01796 | 34845 ft | 416 kts | 266° |
| 2026-05-04 03:08 | 41.81525 | -90.05646 | 35048 ft | 417 kts | 266° |
| 2026-05-04 03:08 | 41.81121 | -90.09492 | 35342 ft | 416 kts | 265° |
| 2026-05-04 03:08 | 41.80717 | -90.13327 | 35638 ft | 415 kts | 265° |
| 2026-05-04 03:08 | 41.80312 | -90.17160 | 35819 ft | 416 kts | 265° |
| 2026-05-04 03:09 | 41.79902 | -90.21038 | 35811 ft | 421 kts | 265° |
| 2026-05-04 03:09 | 41.79077 | -90.28773 | 35882 ft | 422 kts | 265° |
| 2026-05-04 03:09 | 41.78655 | -90.32706 | 36132 ft | 420 kts | 265° |
| 2026-05-04 03:10 | 41.78243 | -90.36522 | 36433 ft | 418 kts | 265° |
| 2026-05-04 03:10 | 41.77821 | -90.40422 | 36710 ft | 417 kts | 265° |
| 2026-05-04 03:10 | 41.77411 | -90.44204 | 36996 ft | 415 kts | 265° |
| 2026-05-04 03:10 | 41.76997 | -90.48009 | 37363 ft | 410 kts | 265° |
| 2026-05-04 03:11 | 41.76586 | -90.51775 | 37673 ft | 407 kts | 265° |
| 2026-05-04 03:11 | 41.76176 | -90.55527 | 37811 ft | 409 kts | 265° |
| 2026-05-04 03:11 | 41.75761 | -90.59317 | 37816 ft | 412 kts | 265° |
| 2026-05-04 03:12 | 41.74925 | -90.66923 | 37821 ft | 412 kts | 265° |
| 2026-05-04 03:12 | 41.74086 | -90.74481 | 37825 ft | 408 kts | 265° |
| 2026-05-04 03:13 | 41.73248 | -90.81990 | 37818 ft | 406 kts | 265° |
| 2026-05-04 03:13 | 41.72416 | -90.89407 | 37824 ft | 404 kts | 265° |
| 2026-05-04 03:14 | 41.71579 | -90.96823 | 37824 ft | 403 kts | 265° |
| 2026-05-04 03:14 | 41.70875 | -91.03031 | 37827 ft | 402 kts | 265° |
| 2026-05-04 03:15 | 41.70031 | -91.10443 | 37827 ft | 403 kts | 265° |
| 2026-05-04 03:15 | 41.69183 | -91.17823 | 37830 ft | 404 kts | 265° |
| 2026-05-04 03:16 | 41.68322 | -91.25273 | 37834 ft | 405 kts | 265° |
| 2026-05-04 03:16 | 41.67457 | -91.32728 | 37836 ft | 406 kts | 265° |
| 2026-05-04 03:17 | 41.66583 | -91.40215 | 37834 ft | 407 kts | 264° |
| 2026-05-04 03:17 | 41.65706 | -91.47664 | 37847 ft | 408 kts | 264° |
| 2026-05-04 03:18 | 41.64819 | -91.55175 | 37840 ft | 409 kts | 264° |
| 2026-05-04 03:18 | 41.63925 | -91.62705 | 37847 ft | 410 kts | 264° |
| 2026-05-04 03:19 | 41.63024 | -91.70242 | 37844 ft | 411 kts | 264° |
| 2026-05-04 03:19 | 41.62122 | -91.77744 | 37844 ft | 411 kts | 264° |
| 2026-05-04 03:20 | 41.61206 | -91.85312 | 37837 ft | 412 kts | 264° |
| 2026-05-04 03:20 | 41.60288 | -91.92862 | 37837 ft | 412 kts | 264° |
| 2026-05-04 03:21 | 41.59361 | -92.00424 | 37831 ft | 412 kts | 264° |
| 2026-05-04 03:21 | 41.58430 | -92.07991 | 37841 ft | 412 kts | 264° |
| 2026-05-04 03:22 | 41.57505 | -92.15481 | 37839 ft | 411 kts | 264° |
| 2026-05-04 03:22 | 41.56569 | -92.23010 | 37840 ft | 410 kts | 264° |
| 2026-05-04 03:23 | 41.55635 | -92.30496 | 37848 ft | 408 kts | 264° |
| 2026-05-04 03:23 | 41.54695 | -92.37960 | 37852 ft | 407 kts | 264° |
| 2026-05-04 03:24 | 41.53760 | -92.45355 | 37850 ft | 405 kts | 264° |
| 2026-05-04 03:24 | 41.52818 | -92.52767 | 37861 ft | 404 kts | 264° |
| 2026-05-04 03:25 | 41.51873 | -92.60157 | 37860 ft | 404 kts | 264° |
| 2026-05-04 03:25 | 41.50924 | -92.67548 | 37865 ft | 404 kts | 264° |
| 2026-05-04 03:26 | 41.49971 | -92.74938 | 37860 ft | 404 kts | 264° |
| 2026-05-04 03:26 | 41.49019 | -92.82273 | 37856 ft | 404 kts | 264° |
| 2026-05-04 03:27 | 41.48053 | -92.89671 | 37851 ft | 404 kts | 264° |
| 2026-05-04 03:27 | 41.47085 | -92.97053 | 37850 ft | 404 kts | 264° |
| 2026-05-04 03:28 | 41.46111 | -93.04448 | 37854 ft | 404 kts | 264° |
| 2026-05-04 03:28 | 41.45138 | -93.11790 | 37851 ft | 405 kts | 264° |
| 2026-05-04 03:29 | 41.44154 | -93.19179 | 37851 ft | 405 kts | 264° |
| 2026-05-04 03:29 | 41.43165 | -93.26570 | 37857 ft | 405 kts | 264° |
| 2026-05-04 03:30 | 41.42172 | -93.33950 | 37851 ft | 405 kts | 264° |
| 2026-05-04 03:30 | 41.41173 | -93.41343 | 37849 ft | 405 kts | 263° |
| 2026-05-04 03:31 | 41.40271 | -93.48744 | 37847 ft | 403 kts | 269° |
| 2026-05-04 03:31 | 41.40311 | -93.56113 | 37851 ft | 401 kts | 274° |
| 2026-05-04 03:32 | 41.40452 | -93.63542 | 37853 ft | 401 kts | 274° |
| 2026-05-04 03:32 | 41.40573 | -93.70990 | 37849 ft | 401 kts | 274° |
| 2026-05-04 03:33 | 41.40679 | -93.78436 | 37855 ft | 402 kts | 274° |
| 2026-05-04 03:33 | 41.40775 | -93.85896 | 37851 ft | 403 kts | 274° |
| 2026-05-04 03:34 | 41.40864 | -93.93336 | 37856 ft | 404 kts | 274° |
| 2026-05-04 03:34 | 41.40949 | -94.00820 | 37854 ft | 405 kts | 274° |
| 2026-05-04 03:35 | 41.41029 | -94.08327 | 37853 ft | 405 kts | 273° |
| 2026-05-04 03:35 | 41.41106 | -94.15855 | 37852 ft | 406 kts | 273° |
| 2026-05-04 03:36 | 41.41177 | -94.23342 | 37854 ft | 406 kts | 273° |
| 2026-05-04 03:36 | 41.41241 | -94.30872 | 37847 ft | 406 kts | 273° |
| 2026-05-04 03:37 | 41.41301 | -94.38390 | 37852 ft | 405 kts | 273° |
| 2026-05-04 03:37 | 41.41360 | -94.45903 | 37851 ft | 405 kts | 273° |
| 2026-05-04 03:38 | 41.41412 | -94.53356 | 37851 ft | 404 kts | 273° |
| 2026-05-04 03:38 | 41.41456 | -94.60831 | 37850 ft | 403 kts | 273° |
| 2026-05-04 03:39 | 41.41497 | -94.68289 | 37852 ft | 402 kts | 273° |
| 2026-05-04 03:39 | 41.41533 | -94.75721 | 37851 ft | 401 kts | 273° |
| 2026-05-04 03:40 | 41.41562 | -94.83142 | 37854 ft | 401 kts | 273° |
| 2026-05-04 03:40 | 41.41591 | -94.90534 | 37848 ft | 400 kts | 273° |
| 2026-05-04 03:41 | 41.41613 | -94.97947 | 37852 ft | 400 kts | 273° |
| 2026-05-04 03:41 | 41.41631 | -95.05358 | 37849 ft | 400 kts | 273° |
| 2026-05-04 03:42 | 41.41642 | -95.12776 | 37856 ft | 400 kts | 273° |
| 2026-05-04 03:42 | 41.41651 | -95.20212 | 37852 ft | 401 kts | 273° |
| 2026-05-04 03:43 | 41.41652 | -95.27612 | 37852 ft | 402 kts | 273° |
| 2026-05-04 03:43 | 41.41652 | -95.35079 | 37852 ft | 403 kts | 273° |
| 2026-05-04 03:44 | 41.41647 | -95.42565 | 37850 ft | 404 kts | 273° |
| 2026-05-04 03:44 | 41.41635 | -95.50066 | 37848 ft | 405 kts | 273° |
| 2026-05-04 03:45 | 41.41618 | -95.57591 | 37851 ft | 406 kts | 272° |
| 2026-05-04 03:45 | 41.41595 | -95.65121 | 37852 ft | 407 kts | 272° |
| 2026-05-04 03:46 | 41.41569 | -95.72665 | 37842 ft | 407 kts | 272° |
| 2026-05-04 03:46 | 41.41537 | -95.80185 | 37842 ft | 408 kts | 272° |
| 2026-05-04 03:47 | 41.41501 | -95.87736 | 37850 ft | 407 kts | 272° |
| 2026-05-04 03:47 | 41.41461 | -95.95283 | 37849 ft | 407 kts | 272° |
| 2026-05-04 03:48 | 41.41414 | -96.02795 | 37849 ft | 407 kts | 272° |
| 2026-05-04 03:48 | 41.41362 | -96.10357 | 37856 ft | 407 kts | 272° |
| 2026-05-04 03:49 | 41.41306 | -96.17917 | 37857 ft | 408 kts | 272° |
| 2026-05-04 03:49 | 41.41245 | -96.25476 | 37850 ft | 408 kts | 272° |
| 2026-05-04 03:50 | 41.41179 | -96.33000 | 37851 ft | 408 kts | 272° |
| 2026-05-04 03:50 | 41.41108 | -96.40570 | 37849 ft | 407 kts | 272° |
| 2026-05-04 03:51 | 41.41033 | -96.48071 | 37850 ft | 407 kts | 272° |
| 2026-05-04 03:51 | 41.40953 | -96.55600 | 37853 ft | 406 kts | 272° |
| 2026-05-04 03:52 | 41.40867 | -96.63126 | 37849 ft | 405 kts | 272° |
| 2026-05-04 03:52 | 41.40777 | -96.70630 | 37852 ft | 405 kts | 272° |
| 2026-05-04 03:53 | 41.40682 | -96.78126 | 37855 ft | 404 kts | 272° |
| 2026-05-04 03:53 | 41.40584 | -96.85567 | 37852 ft | 404 kts | 272° |
| 2026-05-04 03:54 | 41.40479 | -96.93044 | 37853 ft | 403 kts | 272° |
| 2026-05-04 03:54 | 41.40371 | -97.00505 | 37853 ft | 403 kts | 272° |
| 2026-05-04 03:55 | 41.40258 | -97.07983 | 37858 ft | 403 kts | 272° |
| 2026-05-04 03:55 | 41.40140 | -97.15396 | 37863 ft | 403 kts | 272° |
| 2026-05-04 03:56 | 41.40015 | -97.22865 | 37856 ft | 403 kts | 272° |
| 2026-05-04 03:56 | 41.39886 | -97.30319 | 37861 ft | 403 kts | 272° |
| 2026-05-04 03:57 | 41.39752 | -97.37783 | 37861 ft | 403 kts | 271° |
| 2026-05-04 03:57 | 41.39612 | -97.45248 | 37858 ft | 403 kts | 271° |
| 2026-05-04 03:58 | 41.39399 | -97.56453 | 37864 ft | 403 kts | 271° |
| 2026-05-04 03:58 | 41.39252 | -97.63886 | 37863 ft | 404 kts | 271° |
| 2026-05-04 03:59 | 41.39097 | -97.71388 | 37864 ft | 405 kts | 271° |
| 2026-05-04 03:59 | 41.38936 | -97.78898 | 37861 ft | 406 kts | 271° |
| 2026-05-04 04:00 | 41.38770 | -97.86421 | 37861 ft | 406 kts | 271° |
| 2026-05-04 04:00 | 41.38600 | -97.93917 | 37850 ft | 407 kts | 271° |
| 2026-05-04 04:01 | 41.38424 | -98.01473 | 37856 ft | 408 kts | 271° |
| 2026-05-04 04:01 | 41.38274 | -98.07766 | 37861 ft | 409 kts | 271° |
| 2026-05-04 04:02 | 41.38057 | -98.16574 | 37858 ft | 409 kts | 271° |
| 2026-05-04 04:02 | 41.37898 | -98.22926 | 37847 ft | 409 kts | 271° |
| 2026-05-04 04:03 | 41.37703 | -98.30465 | 37851 ft | 409 kts | 271° |
| 2026-05-04 04:03 | 41.36993 | -98.38012 | 37844 ft | 414 kts | 257° |
| 2026-05-04 04:04 | 41.35203 | -98.45315 | 37849 ft | 414 kts | 256° |
| 2026-05-04 04:04 | 41.33392 | -98.52538 | 37848 ft | 414 kts | 256° |
| 2026-05-04 04:05 | 41.31588 | -98.59797 | 37849 ft | 413 kts | 256° |
| 2026-05-04 04:05 | 41.29799 | -98.67037 | 37853 ft | 411 kts | 256° |
| 2026-05-04 04:06 | 41.28014 | -98.74257 | 37851 ft | 410 kts | 256° |
| 2026-05-04 04:06 | 41.26228 | -98.81463 | 37852 ft | 409 kts | 256° |
| 2026-05-04 04:07 | 41.24441 | -98.88640 | 37851 ft | 408 kts | 256° |
| 2026-05-04 04:07 | 41.22664 | -98.95762 | 37851 ft | 407 kts | 256° |
| 2026-05-04 04:08 | 41.20879 | -99.02897 | 37854 ft | 406 kts | 256° |
| 2026-05-04 04:08 | 41.19094 | -99.10009 | 37849 ft | 406 kts | 256° |
| 2026-05-04 04:09 | 41.17304 | -99.17120 | 37855 ft | 406 kts | 256° |
| 2026-05-04 04:09 | 41.15510 | -99.24229 | 37861 ft | 406 kts | 256° |
| 2026-05-04 04:10 | 41.13718 | -99.31304 | 37866 ft | 407 kts | 256° |
| 2026-05-04 04:10 | 41.11909 | -99.38425 | 37860 ft | 408 kts | 256° |
| 2026-05-04 04:11 | 41.10091 | -99.45559 | 37862 ft | 408 kts | 256° |
| 2026-05-04 04:11 | 41.08266 | -99.52703 | 37862 ft | 409 kts | 256° |
| 2026-05-04 04:12 | 41.06433 | -99.59853 | 37863 ft | 409 kts | 256° |
| 2026-05-04 04:12 | 41.04610 | -99.66946 | 37865 ft | 409 kts | 256° |
| 2026-05-04 04:13 | 41.02769 | -99.74080 | 37851 ft | 409 kts | 256° |
| 2026-05-04 04:13 | 41.00929 | -99.81195 | 37868 ft | 408 kts | 256° |
| 2026-05-04 04:14 | 40.99087 | -99.88306 | 37878 ft | 408 kts | 256° |
| 2026-05-04 04:14 | 40.97243 | -99.95400 | 37870 ft | 407 kts | 255° |
| 2026-05-04 04:15 | 40.95397 | -100.02475 | 37869 ft | 406 kts | 255° |
| 2026-05-04 04:15 | 40.93564 | -100.09483 | 37872 ft | 405 kts | 255° |
| 2026-05-04 04:16 | 40.91721 | -100.16506 | 37878 ft | 404 kts | 255° |
| 2026-05-04 04:16 | 40.89877 | -100.23518 | 37870 ft | 403 kts | 255° |
| 2026-05-04 04:17 | 40.88034 | -100.30504 | 37880 ft | 403 kts | 255° |
| 2026-05-04 04:17 | 40.86181 | -100.37505 | 37878 ft | 403 kts | 255° |
| 2026-05-04 04:18 | 40.84329 | -100.44491 | 37870 ft | 403 kts | 255° |
| 2026-05-04 04:18 | 40.82478 | -100.51446 | 37875 ft | 403 kts | 255° |
| 2026-05-04 04:19 | 40.80617 | -100.58427 | 37874 ft | 403 kts | 255° |
| 2026-05-04 04:19 | 40.78748 | -100.65414 | 37878 ft | 403 kts | 255° |
| 2026-05-04 04:20 | 40.77349 | -100.72536 | 37890 ft | 399 kts | 262° |
| 2026-05-04 04:20 | 40.76225 | -100.79717 | 37890 ft | 400 kts | 262° |
| 2026-05-04 04:21 | 40.75055 | -100.86898 | 37888 ft | 401 kts | 261° |
| 2026-05-04 04:21 | 40.73844 | -100.94039 | 37887 ft | 401 kts | 261° |
| 2026-05-04 04:22 | 40.72611 | -101.01226 | 37889 ft | 401 kts | 261° |
| 2026-05-04 04:22 | 40.71375 | -101.08404 | 37892 ft | 401 kts | 261° |
| 2026-05-04 04:23 | 40.70132 | -101.15580 | 37888 ft | 402 kts | 261° |
| 2026-05-04 04:23 | 40.68883 | -101.22724 | 37887 ft | 402 kts | 261° |
| 2026-05-04 04:24 | 40.67623 | -101.29910 | 37888 ft | 402 kts | 261° |
| 2026-05-04 04:24 | 40.66355 | -101.37094 | 37891 ft | 402 kts | 261° |
| 2026-05-04 04:25 | 40.65087 | -101.44272 | 37888 ft | 402 kts | 261° |
| 2026-05-04 04:25 | 40.63814 | -101.51460 | 37888 ft | 402 kts | 260° |
| 2026-05-04 04:26 | 40.62547 | -101.58581 | 37886 ft | 402 kts | 260° |
| 2026-05-04 04:26 | 40.61269 | -101.65736 | 37884 ft | 402 kts | 260° |
| 2026-05-04 04:27 | 40.59985 | -101.72893 | 37891 ft | 401 kts | 260° |
| 2026-05-04 04:27 | 40.58699 | -101.80028 | 37886 ft | 400 kts | 260° |
| 2026-05-04 04:28 | 40.57413 | -101.87146 | 37887 ft | 400 kts | 260° |
| 2026-05-04 04:28 | 40.56123 | -101.94265 | 37889 ft | 399 kts | 260° |
| 2026-05-04 04:29 | 40.54834 | -102.01317 | 37896 ft | 398 kts | 260° |
| 2026-05-04 04:29 | 40.53523 | -102.08385 | 37899 ft | 398 kts | 260° |
| 2026-05-04 04:30 | 40.52202 | -102.15481 | 37898 ft | 398 kts | 260° |
| 2026-05-04 04:30 | 40.50881 | -102.22557 | 37900 ft | 399 kts | 260° |
| 2026-05-04 04:31 | 40.49555 | -102.29645 | 37881 ft | 400 kts | 260° |
| 2026-05-04 04:31 | 40.48884 | -102.33230 | 37405 ft | 405 kts | 260° |
| 2026-05-04 04:31 | 40.48218 | -102.36775 | 36838 ft | 403 kts | 260° |
| 2026-05-04 04:32 | 40.47546 | -102.40339 | 36262 ft | 402 kts | 260° |
| 2026-05-04 04:32 | 40.46873 | -102.43905 | 35616 ft | 402 kts | 260° |
| 2026-05-04 04:32 | 40.46198 | -102.47476 | 34919 ft | 404 kts | 260° |
| 2026-05-04 04:32 | 40.45518 | -102.51072 | 34213 ft | 405 kts | 260° |
| 2026-05-04 04:33 | 40.44835 | -102.54676 | 33494 ft | 407 kts | 260° |
| 2026-05-04 04:33 | 40.44148 | -102.58293 | 32753 ft | 409 kts | 260° |
| 2026-05-04 04:33 | 40.43460 | -102.61909 | 32181 ft | 407 kts | 259° |
| 2026-05-04 04:33 | 40.42777 | -102.65482 | 31961 ft | 396 kts | 259° |
| 2026-05-04 04:34 | 40.42110 | -102.68952 | 31563 ft | 390 kts | 259° |
| 2026-05-04 04:34 | 40.41445 | -102.72404 | 31211 ft | 393 kts | 259° |
| 2026-05-04 04:34 | 40.40769 | -102.75923 | 30834 ft | 401 kts | 259° |
| 2026-05-04 04:34 | 40.40081 | -102.79495 | 30442 ft | 406 kts | 259° |
| 2026-05-04 04:35 | 40.39386 | -102.83082 | 30043 ft | 402 kts | 259° |
| 2026-05-04 04:35 | 40.38700 | -102.86610 | 29642 ft | 395 kts | 259° |
| 2026-05-04 04:35 | 40.38024 | -102.90088 | 29270 ft | 393 kts | 259° |
| 2026-05-04 04:35 | 40.37357 | -102.93530 | 28888 ft | 394 kts | 259° |
| 2026-05-04 04:36 | 40.36672 | -102.97047 | 28495 ft | 392 kts | 259° |
| 2026-05-04 04:36 | 40.36006 | -103.00462 | 28115 ft | 390 kts | 259° |
| 2026-05-04 04:36 | 40.35334 | -103.03909 | 27737 ft | 388 kts | 259° |
| 2026-05-04 04:36 | 40.34669 | -103.07326 | 27353 ft | 386 kts | 259° |
| 2026-05-04 04:37 | 40.32687 | -103.17500 | 26237 ft | 381 kts | 258° |
| 2026-05-04 04:37 | 40.32029 | -103.20866 | 25871 ft | 379 kts | 258° |
| 2026-05-04 04:38 | 40.31375 | -103.24204 | 25503 ft | 377 kts | 258° |
| 2026-05-04 04:38 | 40.30722 | -103.27527 | 25137 ft | 375 kts | 258° |
| 2026-05-04 04:38 | 40.30076 | -103.30790 | 24777 ft | 373 kts | 258° |
| 2026-05-04 04:38 | 40.29421 | -103.34072 | 24414 ft | 371 kts | 257° |
| 2026-05-04 04:39 | 40.28770 | -103.37336 | 24052 ft | 369 kts | 257° |
| 2026-05-04 04:39 | 40.28122 | -103.40582 | 23693 ft | 367 kts | 257° |
| 2026-05-04 04:39 | 40.27477 | -103.43814 | 23336 ft | 365 kts | 257° |
| 2026-05-04 04:39 | 40.26835 | -103.47026 | 22978 ft | 363 kts | 257° |
| 2026-05-04 04:40 | 40.26198 | -103.50213 | 22625 ft | 361 kts | 257° |
| 2026-05-04 04:40 | 40.25567 | -103.53353 | 22281 ft | 359 kts | 257° |
| 2026-05-04 04:40 | 40.24932 | -103.56507 | 21931 ft | 357 kts | 257° |
| 2026-05-04 04:40 | 40.24308 | -103.59638 | 21656 ft | 354 kts | 257° |
| 2026-05-04 04:41 | 40.23692 | -103.62743 | 21378 ft | 351 kts | 257° |
| 2026-05-04 04:41 | 40.23083 | -103.65829 | 21109 ft | 349 kts | 258° |
| 2026-05-04 04:41 | 40.22477 | -103.68892 | 20841 ft | 347 kts | 257° |
| 2026-05-04 04:41 | 40.21873 | -103.71939 | 20582 ft | 345 kts | 257° |
| 2026-05-04 04:42 | 40.21268 | -103.74985 | 20305 ft | 345 kts | 257° |
| 2026-05-04 04:42 | 40.20663 | -103.78024 | 20041 ft | 344 kts | 257° |
| 2026-05-04 04:42 | 40.20059 | -103.81053 | 19777 ft | 341 kts | 257° |
| 2026-05-04 04:42 | 40.19463 | -103.84030 | 19515 ft | 334 kts | 258° |
| 2026-05-04 04:43 | 40.18881 | -103.86935 | 19244 ft | 326 kts | 258° |
| 2026-05-04 04:43 | 40.18315 | -103.89737 | 18995 ft | 318 kts | 257° |
| 2026-05-04 04:43 | 40.17477 | -103.92407 | 18703 ft | 317 kts | 244° |
| 2026-05-04 04:43 | 40.16334 | -103.94843 | 18444 ft | 312 kts | 242° |
| 2026-05-04 04:44 | 40.15174 | -103.97228 | 18161 ft | 308 kts | 242° |
| 2026-05-04 04:44 | 40.14035 | -103.99575 | 17884 ft | 303 kts | 242° |
| 2026-05-04 04:44 | 40.12916 | -104.01889 | 17603 ft | 300 kts | 242° |
| 2026-05-04 04:44 | 40.11818 | -104.04197 | 17344 ft | 298 kts | 242° |
| 2026-05-04 04:45 | 40.10729 | -104.06495 | 17093 ft | 296 kts | 242° |
| 2026-05-04 04:45 | 40.09658 | -104.08756 | 16838 ft | 296 kts | 242° |
| 2026-05-04 04:45 | 40.08576 | -104.11043 | 16578 ft | 297 kts | 242° |
| 2026-05-04 04:47 | 40.02115 | -104.24636 | 14976 ft | 302 kts | 241° |
| 2026-05-04 04:47 | 40.01006 | -104.26962 | 14696 ft | 302 kts | 241° |
| 2026-05-04 04:47 | 39.99947 | -104.29181 | 14434 ft | 301 kts | 241° |
| 2026-05-04 04:47 | 39.98842 | -104.31498 | 14161 ft | 301 kts | 240° |
| 2026-05-04 04:48 | 39.97739 | -104.33807 | 13886 ft | 299 kts | 240° |
| 2026-05-04 04:49 | 39.93789 | -104.42063 | 12918 ft | 289 kts | 240° |
| 2026-05-04 04:49 | 39.92732 | -104.44275 | 12688 ft | 287 kts | 240° |
| 2026-05-04 04:49 | 39.91680 | -104.46477 | 12467 ft | 285 kts | 240° |
| 2026-05-04 04:49 | 39.90452 | -104.48497 | 12210 ft | 286 kts | 221° |
| 2026-05-04 04:50 | 39.88710 | -104.49716 | 11998 ft | 283 kts | 199° |
| 2026-05-04 04:50 | 39.86786 | -104.50039 | 11781 ft | 275 kts | 184° |
| 2026-05-04 04:50 | 39.84923 | -104.50056 | 11683 ft | 261 kts | 183° |
| 2026-05-04 04:50 | 39.83160 | -104.50061 | 11472 ft | 252 kts | 183° |
| 2026-05-04 04:51 | 39.81411 | -104.50078 | 11102 ft | 251 kts | 183° |
| 2026-05-04 04:51 | 39.79663 | -104.50103 | 10705 ft | 250 kts | 184° |
| 2026-05-04 04:51 | 39.77928 | -104.50185 | 10300 ft | 249 kts | 184° |
| 2026-05-04 04:51 | 39.76198 | -104.50273 | 9911 ft | 248 kts | 184° |
| 2026-05-04 04:52 | 39.74496 | -104.50532 | 9492 ft | 246 kts | 203° |
| 2026-05-04 04:52 | 39.73195 | -104.51904 | 9016 ft | 245 kts | 240° |
| 2026-05-04 04:52 | 39.72706 | -104.53981 | 8746 ft | 236 kts | 266° |
| 2026-05-04 04:52 | 39.72848 | -104.56016 | 8668 ft | 218 kts | 282° |
| 2026-05-04 04:53 | 39.73218 | -104.57889 | 8376 ft | 212 kts | 284° |
| 2026-05-04 04:53 | 39.73604 | -104.59738 | 7997 ft | 211 kts | 284° |
| 2026-05-04 04:53 | 39.73977 | -104.61556 | 7737 ft | 202 kts | 284° |
| 2026-05-04 04:53 | 39.74319 | -104.63245 | 7556 ft | 187 kts | 283° |
| 2026-05-04 04:54 | 39.74714 | -104.64831 | 7185 ft | 181 kts | 301° |
| 2026-05-04 04:54 | 39.75605 | -104.65870 | 6955 ft | 171 kts | 335° |
| 2026-05-04 04:54 | 39.76776 | -104.66077 | 6719 ft | 170 kts | 359° |
| 2026-05-04 04:54 | 39.77902 | -104.66079 | 6454 ft | 165 kts | 357° |
| 2026-05-04 04:55 | 39.79038 | -104.66076 | 6208 ft | 163 kts | 358° |
| 2026-05-04 04:55 | 39.80177 | -104.66081 | 5989 ft | 164 kts | 359° |
| 2026-05-04 04:55 | 39.81319 | -104.66069 | 5744 ft | 165 kts | 358° |
| 2026-05-04 04:55 | 39.82444 | -104.66061 | 5552 ft | 163 kts | 359° |
| 2026-05-04 04:56 | 39.83554 | -104.66047 | 5425 ft | 149 kts | 1° |
| 2026-05-04 04:56 | 39.84441 | -104.66037 | 5419 ft | 106 kts | 0° |
| 2026-05-04 04:56 | 39.85042 | -104.66029 | 5405 ft | 74 kts | 1° |
| 2026-05-04 04:56 | 39.85477 | -104.66023 | 5391 ft | 41 kts | 0° |
| 2026-05-04 04:57 | 39.85656 | -104.66038 | 5393 ft | 17 kts | 324° |
| 2026-05-04 04:57 | 39.85674 | -104.66179 | 5392 ft | 16 kts | 266° |
| 2026-05-04 04:57 | 39.85687 | -104.66319 | 5387 ft | 15 kts | 300° |
| 2026-05-04 04:57 | 39.85785 | -104.66349 | 5381 ft | 15 kts | 1° |
| 2026-05-04 04:58 | 39.85894 | -104.66348 | 5380 ft | 18 kts | 0° |
| 2026-05-04 04:58 | 39.86034 | -104.66346 | 5383 ft | 22 kts | 1° |
| 2026-05-04 04:58 | 39.86192 | -104.66344 | 5376 ft | 23 kts | 0° |
| 2026-05-04 04:58 | 39.86349 | -104.66342 | 5376 ft | 19 kts | 0° |
| 2026-05-04 04:59 | 39.86478 | -104.66355 | 5378 ft | 18 kts | 328° |
| 2026-05-04 04:59 | 39.86495 | -104.66509 | 5373 ft | 18 kts | 255° |
| 2026-05-04 04:59 | 39.86469 | -104.66661 | 5372 ft | 17 kts | 270° |
| 2026-05-04 04:59 | 39.86470 | -104.66814 | 5373 ft | 17 kts | 270° |
| 2026-05-04 05:00 | 39.86471 | -104.66961 | 5374 ft | 16 kts | 270° |
| 2026-05-04 05:00 | 39.86472 | -104.67103 | 5373 ft | 15 kts | 270° |
| 2026-05-04 05:00 | 39.86474 | -104.67413 | 5374 ft | 16 kts | 270° |
| 2026-05-04 05:01 | 39.86470 | -104.67519 | 5376 ft | 8 kts | 248° |
| 2026-05-04 05:01 | 39.86432 | -104.67570 | 5376 ft | 8 kts | 198° |
| 2026-05-04 05:01 | 39.86380 | -104.67572 | 5373 ft | 6 kts | 180° |
| 2026-05-04 05:01 | 39.86357 | -104.67572 | 5376 ft | 1 kts | 180° |